createdAt,value
2022-09-28T00:00:32.161Z,94.64
2022-09-28T00:01:32.201Z,94.95
2022-09-28T00:02:32.223Z,95.20
2022-09-28T00:03:32.134Z,94.54
2022-09-28T00:04:32.116Z,94.89
2022-09-28T00:05:32.107Z,95.09
2022-09-28T00:06:32.100Z,95.05
2022-09-28T00:07:32.114Z,94.58
2022-09-28T00:08:32.074Z,95.09
2022-09-28T00:09:32.082Z,94.89
2022-09-28T00:10:32.063Z,94.78
2022-09-28T00:11:32.051Z,94.89
2022-09-28T00:12:32.055Z,94.89
2022-09-28T00:13:32.025Z,94.78
2022-09-28T00:14:32.027Z,94.89
2022-09-28T00:15:32.024Z,94.78
2022-09-28T00:16:32.061Z,94.89
2022-09-28T00:17:32.017Z,94.89
2022-09-28T00:18:31.985Z,94.74
2022-09-28T00:19:31.974Z,94.68
2022-09-28T00:20:31.967Z,94.37
2022-09-28T00:21:31.968Z,94.48
2022-09-28T00:22:31.934Z,94.68
2022-09-28T00:23:31.920Z,94.27
2022-09-28T00:24:31.912Z,93.96
2022-09-28T00:25:31.917Z,94.37
2022-09-28T00:26:31.925Z,94.37
2022-09-28T00:27:31.898Z,94.37
2022-09-28T00:28:31.882Z,94.23
2022-09-28T00:29:31.862Z,94.17
2022-09-28T00:30:31.918Z,94.07
2022-09-28T00:31:31.906Z,94.17
2022-09-28T00:32:31.842Z,94.27
2022-09-28T00:33:31.835Z,94.27
2022-09-28T00:34:31.841Z,94.27
2022-09-28T00:35:31.815Z,94.23
2022-09-28T00:36:31.801Z,93.96
2022-09-28T00:37:31.822Z,94.17
2022-09-28T00:38:31.783Z,94.12
2022-09-28T00:39:31.814Z,93.96
2022-09-28T00:40:31.815Z,94.07
2022-09-28T00:41:31.763Z,93.92
2022-09-28T00:42:31.777Z,93.76
2022-09-28T00:43:31.740Z,94.23
2022-09-28T00:44:31.759Z,94.33
2022-09-28T00:45:31.803Z,94.17
2022-09-28T00:46:31.698Z,94.37
2022-09-28T00:47:31.711Z,94.37
2022-09-28T00:48:31.690Z,94.17
2022-09-28T00:49:31.688Z,94.64
2022-09-28T00:50:31.663Z,94.43
2022-09-28T00:51:31.653Z,94.58
2022-09-28T00:52:31.677Z,94.58
2022-09-28T00:53:31.653Z,93.96
2022-09-28T00:54:31.625Z,93.65
2022-09-28T00:55:31.596Z,94.07
2022-09-28T00:56:32.591Z,93.71
2022-09-28T00:57:31.610Z,93.61
2022-09-28T00:58:31.572Z,93.51
2022-09-28T00:59:31.577Z,93.40
2022-09-28T01:00:31.613Z,93.71
2022-09-28T01:01:31.550Z,93.51
2022-09-28T01:02:31.607Z,93.40
2022-09-28T01:03:31.534Z,93.65
2022-09-28T01:04:31.529Z,93.30
2022-09-28T01:05:31.524Z,93.40
2022-09-28T01:06:31.535Z,93.61
2022-09-28T01:07:31.512Z,93.71
2022-09-28T01:08:31.486Z,93.51
2022-09-28T01:09:31.473Z,93.30
2022-09-28T01:10:31.479Z,93.10
2022-09-28T01:11:31.480Z,93.20
2022-09-28T01:12:31.445Z,93.20
2022-09-28T01:13:31.438Z,93.40
2022-09-28T01:14:31.422Z,93.51
2022-09-28T01:15:31.418Z,93.67
2022-09-28T01:16:31.488Z,93.57
2022-09-28T01:17:31.404Z,93.46
2022-09-28T01:18:31.381Z,93.57
2022-09-28T01:19:31.370Z,93.61
2022-09-28T01:20:31.360Z,93.71
2022-09-28T01:21:31.422Z,93.71
2022-09-28T01:22:31.334Z,93.36
2022-09-28T01:23:31.319Z,93.26
2022-09-28T01:24:31.313Z,93.67
2022-09-28T01:25:31.301Z,93.67
2022-09-28T01:26:31.317Z,93.77
2022-09-28T01:27:31.291Z,93.46
2022-09-28T01:28:31.283Z,93.67
2022-09-28T01:29:31.275Z,93.30
2022-09-28T01:30:31.253Z,93.46
2022-09-28T01:31:31.325Z,93.77
2022-09-28T01:32:31.245Z,93.61
2022-09-28T01:33:31.222Z,94.12
2022-09-28T01:34:31.223Z,94.02
2022-09-28T01:35:31.215Z,94.12
2022-09-28T01:36:31.227Z,94.33
2022-09-28T01:37:31.188Z,94.12
2022-09-28T01:38:31.177Z,94.59
2022-09-28T01:39:31.169Z,94.39
2022-09-28T01:40:31.217Z,94.33
2022-09-28T01:41:31.164Z,94.49
2022-09-28T01:42:31.136Z,94.43
2022-09-28T01:43:31.126Z,94.43
2022-09-28T01:44:31.118Z,94.54
2022-09-28T01:45:31.164Z,94.43
2022-09-28T01:46:31.120Z,94.33
2022-09-28T01:47:31.134Z,94.43
2022-09-28T01:48:31.083Z,94.43
2022-09-28T01:49:31.068Z,94.39
2022-09-28T01:50:31.063Z,94.39
2022-09-28T01:51:31.072Z,94.18
2022-09-28T01:52:31.062Z,94.18
2022-09-28T01:53:31.037Z,94.29
2022-09-28T01:54:31.024Z,94.39
2022-09-28T01:55:31.016Z,94.12
2022-09-28T01:56:31.035Z,94.33
2022-09-28T01:57:30.998Z,94.12
2022-09-28T01:58:30.979Z,94.23
2022-09-28T01:59:30.974Z,94.23
2022-09-28T02:00:31.007Z,94.33
2022-09-28T02:01:30.974Z,94.18
2022-09-28T02:02:31.000Z,94.29
2022-09-28T02:03:30.933Z,94.33
2022-09-28T02:04:30.926Z,94.43
2022-09-28T02:05:30.913Z,94.54
2022-09-28T02:06:30.922Z,94.18
2022-09-28T02:07:30.892Z,94.49
2022-09-28T02:08:30.884Z,94.43
2022-09-28T02:09:33.813Z,94.23
2022-09-28T02:10:31.864Z,94.12
2022-09-28T02:11:30.851Z,94.12
2022-09-28T02:12:30.870Z,93.67
2022-09-28T02:13:30.835Z,93.82
2022-09-28T02:14:30.831Z,94.43
2022-09-28T02:15:30.812Z,94.12
2022-09-28T02:16:30.875Z,94.02
2022-09-28T02:17:30.811Z,94.12
2022-09-28T02:18:30.780Z,93.92
2022-09-28T02:19:30.775Z,94.33
2022-09-28T02:20:30.757Z,94.33
2022-09-28T02:21:30.754Z,94.64
2022-09-28T02:22:30.745Z,94.84
2022-09-28T02:23:30.734Z,94.74
2022-09-28T02:24:30.713Z,94.64
2022-09-28T02:25:30.710Z,94.74
2022-09-28T02:26:30.686Z,94.54
2022-09-28T02:27:30.712Z,94.95
2022-09-28T02:28:30.680Z,94.84
2022-09-28T02:29:30.666Z,94.84
2022-09-28T02:30:30.642Z,94.99
2022-09-28T02:31:30.678Z,94.43
2022-09-28T02:32:30.652Z,95.05
2022-09-28T02:33:30.634Z,94.54
2022-09-28T02:34:30.611Z,94.95
2022-09-28T02:35:30.602Z,94.89
2022-09-28T02:36:30.593Z,95.05
2022-09-28T02:37:30.618Z,94.84
2022-09-28T02:38:30.568Z,94.95
2022-09-28T02:39:30.561Z,94.78
2022-09-28T02:40:30.614Z,95.25
2022-09-28T02:41:30.548Z,95.81
2022-09-28T02:42:30.545Z,95.71
2022-09-28T02:43:30.526Z,95.46
2022-09-28T02:44:30.544Z,95.50
2022-09-28T02:45:30.559Z,95.46
2022-09-28T02:46:30.501Z,95.40
2022-09-28T02:47:30.509Z,95.46
2022-09-28T02:48:43.179Z,95.71
2022-09-28T02:49:32.687Z,95.71
2022-09-28T02:50:30.456Z,95.56
2022-09-28T02:51:30.443Z,95.67
2022-09-28T02:52:30.466Z,95.67
2022-09-28T02:53:30.424Z,95.46
2022-09-28T02:54:30.437Z,95.67
2022-09-28T02:55:30.411Z,95.71
2022-09-28T02:56:30.395Z,95.92
2022-09-28T02:57:30.405Z,95.46
2022-09-28T02:58:30.383Z,95.61
2022-09-28T02:59:30.393Z,95.61
2022-09-28T03:00:30.361Z,95.71
2022-09-28T03:01:30.342Z,95.46
2022-09-28T03:02:30.390Z,95.36
2022-09-28T03:03:30.333Z,95.67
2022-09-28T03:04:30.319Z,95.77
2022-09-28T03:05:30.316Z,95.56
2022-09-28T03:06:30.297Z,95.61
2022-09-28T03:07:30.306Z,95.71
2022-09-28T03:08:30.278Z,95.77
2022-09-28T03:09:30.263Z,95.67
2022-09-28T03:10:30.262Z,95.46
2022-09-28T03:11:30.253Z,95.77
2022-09-28T03:12:30.260Z,95.36
2022-09-28T03:13:30.226Z,95.67
2022-09-28T03:14:30.242Z,95.67
2022-09-28T03:15:30.214Z,95.46
2022-09-28T03:16:30.239Z,95.46
2022-09-28T03:17:30.218Z,95.67
2022-09-28T03:18:30.187Z,95.71
2022-09-28T03:19:30.175Z,95.46
2022-09-28T03:20:30.166Z,95.46
2022-09-28T03:21:30.157Z,95.50
2022-09-28T03:22:30.164Z,95.36
2022-09-28T03:23:30.130Z,95.46
2022-09-28T03:24:30.128Z,95.46
2022-09-28T03:25:30.103Z,95.36
2022-09-28T03:26:30.104Z,95.36
2022-09-28T03:27:30.106Z,95.46
2022-09-28T03:28:30.085Z,95.36
2022-09-28T03:29:30.059Z,95.36
2022-09-28T03:30:30.068Z,95.71
2022-09-28T03:31:30.099Z,95.46
2022-09-28T03:32:30.058Z,95.25
2022-09-28T03:33:30.026Z,95.56
2022-09-28T03:34:30.018Z,95.40
2022-09-28T03:35:30.011Z,95.77
2022-09-28T03:36:30.000Z,95.40
2022-09-28T03:37:30.009Z,95.46
2022-09-28T03:38:29.981Z,95.46
2022-09-28T03:39:29.966Z,95.25
2022-09-28T03:40:30.016Z,95.25
2022-09-28T03:41:29.938Z,94.84
2022-09-28T03:42:29.958Z,94.99
2022-09-28T03:43:29.935Z,95.20
2022-09-28T03:44:29.923Z,94.99
2022-09-28T03:45:29.977Z,95.15
2022-09-28T03:46:29.899Z,94.84
2022-09-28T03:47:29.905Z,95.25
2022-09-28T03:48:32.413Z,95.05
2022-09-28T03:49:29.873Z,94.95
2022-09-28T03:50:29.868Z,95.15
2022-09-28T03:51:29.855Z,95.05
2022-09-28T03:52:29.866Z,94.95
2022-09-28T03:53:29.846Z,94.95
2022-09-28T03:54:29.829Z,95.25
2022-09-28T03:55:29.813Z,95.15
2022-09-28T03:56:29.796Z,95.15
2022-09-28T03:57:29.816Z,94.95
2022-09-28T03:58:29.779Z,94.80
2022-09-28T03:59:29.776Z,94.90
2022-09-28T04:00:29.763Z,94.70
2022-09-28T04:01:29.784Z,95.10
2022-09-28T04:02:29.791Z,94.70
2022-09-28T04:03:29.731Z,95.15
2022-09-28T04:04:29.718Z,94.80
2022-09-28T04:05:29.712Z,95.01
2022-09-28T04:06:29.698Z,94.80
2022-09-28T04:07:31.264Z,95.01
2022-09-28T04:08:30.668Z,94.90
2022-09-28T04:09:29.668Z,95.01
2022-09-28T04:10:29.656Z,94.59
2022-09-28T04:11:42.863Z,94.70
2022-09-28T04:12:31.656Z,95.01
2022-09-28T04:13:29.649Z,94.59
2022-09-28T04:14:29.618Z,94.64
2022-09-28T04:15:29.618Z,94.70
2022-09-28T04:16:29.708Z,94.84
2022-09-28T04:17:29.605Z,94.90
2022-09-28T04:18:29.572Z,95.10
2022-09-28T04:19:29.590Z,95.15
2022-09-28T04:20:29.560Z,94.80
2022-09-28T04:21:29.554Z,95.05
2022-09-28T04:22:29.551Z,94.49
2022-09-28T04:23:29.525Z,94.64
2022-09-28T04:24:29.500Z,95.05
2022-09-28T04:25:29.510Z,94.74
2022-09-28T04:26:29.501Z,94.95
2022-09-28T04:27:29.501Z,94.84
2022-09-28T04:28:29.475Z,94.64
2022-09-28T04:29:29.468Z,94.95
2022-09-28T04:30:30.462Z,94.74
2022-09-28T04:31:29.466Z,94.68
2022-09-28T04:32:29.445Z,94.54
2022-09-28T04:33:29.437Z,95.05
2022-09-28T04:34:34.548Z,94.74
2022-09-28T04:35:31.416Z,94.64
2022-09-28T04:36:29.396Z,94.84
2022-09-28T04:37:29.405Z,94.58
2022-09-28T04:38:51.260Z,95.09
2022-09-28T04:39:31.371Z,94.48
2022-09-28T04:40:29.367Z,94.89
2022-09-28T04:41:29.342Z,94.58
2022-09-28T04:42:29.357Z,95.20
2022-09-28T04:43:29.322Z,94.89
2022-09-28T04:44:29.317Z,95.09
2022-09-28T04:45:29.337Z,95.20
2022-09-28T04:46:29.299Z,94.99
2022-09-28T04:47:29.319Z,94.89
2022-09-28T04:48:29.277Z,94.37
2022-09-28T04:49:29.268Z,94.27
2022-09-28T04:50:29.247Z,94.99
2022-09-28T04:51:29.252Z,95.09
2022-09-28T04:52:29.254Z,94.78
2022-09-28T04:53:29.227Z,95.34
2022-09-28T04:54:30.220Z,95.09
2022-09-28T04:55:29.197Z,94.99
2022-09-28T04:56:29.198Z,94.99
2022-09-28T04:57:29.200Z,95.09
2022-09-28T04:58:29.170Z,95.30
2022-09-28T04:59:29.154Z,95.40
2022-09-28T05:00:29.139Z,95.20
2022-09-28T05:01:29.199Z,95.40
2022-09-28T05:02:29.205Z,95.71
2022-09-28T05:03:29.123Z,95.34
2022-09-28T05:04:29.104Z,95.50
2022-09-28T05:05:29.105Z,95.50
2022-09-28T05:06:29.092Z,95.71
2022-09-28T05:07:29.101Z,95.40
2022-09-28T05:08:29.065Z,95.50
2022-09-28T05:09:29.054Z,95.81
2022-09-28T05:10:29.048Z,95.50
2022-09-28T05:11:29.042Z,95.71
2022-09-28T05:12:29.031Z,95.71
2022-09-28T05:13:29.047Z,95.71
2022-09-28T05:14:29.008Z,95.71
2022-09-28T05:15:28.999Z,96.22
2022-09-28T05:16:29.067Z,95.71
2022-09-28T05:17:28.979Z,95.71
2022-09-28T05:18:28.992Z,95.50
2022-09-28T05:19:28.960Z,95.92
2022-09-28T05:20:28.949Z,95.92
2022-09-28T05:21:28.936Z,95.81
2022-09-28T05:22:28.926Z,96.84
2022-09-28T05:23:28.949Z,96.64
2022-09-28T05:24:28.912Z,96.64
2022-09-28T05:25:28.907Z,96.33
2022-09-28T05:26:28.889Z,96.53
2022-09-28T05:27:28.882Z,96.43
2022-09-28T05:28:28.888Z,96.53
2022-09-28T05:29:32.075Z,96.33
2022-09-28T05:30:29.853Z,96.64
2022-09-28T05:31:28.918Z,96.53
2022-09-28T05:32:28.827Z,96.73
2022-09-28T05:33:28.842Z,96.33
2022-09-28T05:34:28.808Z,95.71
2022-09-28T05:35:28.795Z,96.02
2022-09-28T05:36:28.793Z,96.68
2022-09-28T05:37:28.781Z,96.02
2022-09-28T05:38:28.829Z,96.22
2022-09-28T05:39:28.757Z,95.71
2022-09-28T05:40:28.779Z,95.81
2022-09-28T05:41:28.733Z,95.50
2022-09-28T05:42:29.786Z,95.75
2022-09-28T05:43:28.743Z,95.86
2022-09-28T05:44:28.715Z,95.86
2022-09-28T05:45:28.730Z,96.47
2022-09-28T05:46:28.748Z,96.37
2022-09-28T05:47:28.689Z,96.58
2022-09-28T05:48:28.692Z,95.55
2022-09-28T05:49:28.663Z,94.73
2022-09-28T05:50:28.643Z,94.83
2022-09-28T05:51:28.635Z,94.83
2022-09-28T05:52:28.626Z,94.52
2022-09-28T05:53:28.633Z,94.01
2022-09-28T05:54:28.607Z,92.97
2022-09-28T05:55:28.642Z,93.49
2022-09-28T05:56:28.583Z,92.67
2022-09-28T05:57:28.569Z,92.71
2022-09-28T05:58:28.587Z,93.18
2022-09-28T05:59:28.738Z,93.64
2022-09-28T06:00:28.561Z,93.49
2022-09-28T06:01:28.552Z,94.11
2022-09-28T06:02:28.628Z,94.62
2022-09-28T06:03:28.597Z,94.42
2022-09-28T06:04:28.505Z,93.18
2022-09-28T06:05:28.502Z,93.39
2022-09-28T06:06:28.486Z,93.29
2022-09-28T06:07:28.482Z,93.08
2022-09-28T06:08:29.457Z,93.08
2022-09-28T06:09:28.449Z,92.67
2022-09-28T06:10:28.502Z,92.40
2022-09-28T06:11:28.432Z,92.57
2022-09-28T06:12:28.429Z,92.36
2022-09-28T06:13:28.434Z,92.46
2022-09-28T06:14:28.412Z,92.36
2022-09-28T06:15:28.385Z,92.46
2022-09-28T06:16:28.476Z,91.64
2022-09-28T06:17:28.375Z,90.81
2022-09-28T06:18:28.383Z,91.33
2022-09-28T06:19:28.359Z,90.41
2022-09-28T06:20:28.408Z,90.92
2022-09-28T06:21:28.329Z,90.72
2022-09-28T06:22:28.323Z,90.30
2022-09-28T06:23:28.328Z,90.67
2022-09-28T06:24:28.310Z,90.81
2022-09-28T06:25:28.297Z,90.61
2022-09-28T06:26:28.298Z,91.02
2022-09-28T06:27:28.273Z,90.98
2022-09-28T06:28:28.281Z,91.13
2022-09-28T06:29:28.255Z,90.51
2022-09-28T06:30:28.372Z,90.51
2022-09-28T06:31:28.221Z,90.41
2022-09-28T06:32:28.225Z,90.20
2022-09-28T06:33:28.226Z,90.41
2022-09-28T06:34:28.194Z,88.45
2022-09-28T06:35:28.178Z,89.48
2022-09-28T06:36:28.235Z,89.48
2022-09-28T06:37:28.173Z,89.22
2022-09-28T06:38:28.177Z,89.28
2022-09-28T06:39:28.141Z,89.28
2022-09-28T06:40:28.276Z,89.38
2022-09-28T06:41:28.134Z,89.48
2022-09-28T06:42:28.125Z,89.58
2022-09-28T06:43:32.152Z,89.28
2022-09-28T06:44:29.101Z,89.17
2022-09-28T06:45:28.088Z,88.96
2022-09-28T06:46:28.110Z,88.70
2022-09-28T06:47:28.080Z,88.45
2022-09-28T06:48:28.152Z,88.45
2022-09-28T06:49:28.062Z,88.76
2022-09-28T06:50:28.105Z,88.82
2022-09-28T06:51:28.034Z,88.82
2022-09-28T06:52:28.017Z,89.03
2022-09-28T06:53:28.028Z,89.28
2022-09-28T06:54:27.999Z,89.44
2022-09-28T06:56:00.387Z,89.44
2022-09-28T06:56:32.562Z,89.23
2022-09-28T06:57:28.974Z,89.64
2022-09-28T06:58:28.000Z,89.17
2022-09-28T06:59:27.949Z,89.58
2022-09-28T07:00:27.954Z,89.13
2022-09-28T07:01:27.980Z,89.13
2022-09-28T07:02:27.995Z,89.85
2022-09-28T07:03:27.939Z,88.62
2022-09-28T07:04:27.907Z,89.85
2022-09-28T07:05:27.892Z,90.06
2022-09-28T07:06:27.869Z,89.54
2022-09-28T07:07:27.872Z,89.19
2022-09-28T07:08:27.893Z,88.62
2022-09-28T07:09:32.658Z,88.00
2022-09-28T07:10:29.837Z,88.47
2022-09-28T07:11:27.835Z,88.68
2022-09-28T07:12:27.832Z,88.17
2022-09-28T07:13:50.403Z,88.20
2022-09-28T07:14:46.970Z,87.79
2022-09-28T07:15:29.803Z,87.90
2022-09-28T07:16:37.153Z,87.63
2022-09-28T07:17:29.817Z,87.90
2022-09-28T07:18:27.821Z,87.90
2022-09-28T07:19:27.757Z,88.76
2022-09-28T07:20:27.749Z,88.66
2022-09-28T07:21:30.514Z,88.82
2022-09-28T07:22:41.460Z,88.31
2022-09-28T07:23:29.736Z,88.20
2022-09-28T07:24:27.704Z,88.51
2022-09-28T07:25:27.696Z,87.94
2022-09-28T07:26:27.700Z,88.24
2022-09-28T07:27:29.030Z,88.51
2022-09-28T07:28:28.691Z,88.62
2022-09-28T07:29:27.659Z,88.35
2022-09-28T07:30:28.035Z,88.35
2022-09-28T07:31:27.648Z,88.10
2022-09-28T07:32:27.664Z,87.84
2022-09-28T07:33:27.632Z,87.90
2022-09-28T07:34:27.599Z,87.69
2022-09-28T07:35:27.597Z,87.90
2022-09-28T07:36:27.591Z,88.72
2022-09-28T07:37:27.581Z,87.49
2022-09-28T07:38:27.574Z,87.38
2022-09-28T07:39:27.577Z,87.49
2022-09-28T07:40:27.597Z,86.77
2022-09-28T07:41:27.536Z,86.62
2022-09-28T07:42:27.530Z,86.68
2022-09-28T07:43:27.532Z,86.07
2022-09-28T07:44:27.503Z,85.76
2022-09-28T07:45:27.492Z,85.46
2022-09-28T07:46:27.530Z,84.63
2022-09-28T07:47:32.217Z,85.39
2022-09-28T07:48:29.472Z,85.25
2022-09-28T07:49:28.461Z,84.98
2022-09-28T07:50:27.445Z,84.94
2022-09-28T07:51:27.429Z,84.59
2022-09-28T07:52:27.428Z,84.22
2022-09-28T07:53:27.434Z,84.63
2022-09-28T07:54:27.399Z,84.18
2022-09-28T07:55:27.396Z,83.46
2022-09-28T07:56:27.383Z,83.56
2022-09-28T07:57:27.370Z,83.56
2022-09-28T07:58:27.374Z,83.87
2022-09-28T07:59:27.355Z,84.04
2022-09-28T08:00:29.843Z,84.04
2022-09-28T08:01:28.369Z,84.00
2022-09-28T08:02:27.371Z,83.22
2022-09-28T08:03:27.336Z,83.42
2022-09-28T08:04:27.307Z,83.12
2022-09-28T08:05:27.277Z,83.22
2022-09-28T08:06:27.279Z,82.60
2022-09-28T08:07:27.278Z,82.84
2022-09-28T08:08:27.282Z,82.81
2022-09-28T08:09:27.249Z,82.87
2022-09-28T08:10:27.240Z,82.87
2022-09-28T08:11:27.234Z,82.53
2022-09-28T08:12:27.229Z,82.15
2022-09-28T08:13:27.496Z,81.64
2022-09-28T08:14:27.204Z,82.15
2022-09-28T08:15:27.193Z,81.64
2022-09-28T08:16:27.270Z,82.46
2022-09-28T08:17:27.170Z,82.97
2022-09-28T08:18:27.188Z,81.85
2022-09-28T08:19:27.164Z,81.85
2022-09-28T08:20:27.142Z,82.67
2022-09-28T08:21:27.139Z,82.46
2022-09-28T08:22:27.114Z,81.34
2022-09-28T08:23:27.122Z,82.05
2022-09-28T08:24:27.098Z,81.95
2022-09-28T08:25:27.087Z,81.91
2022-09-28T08:26:27.088Z,82.22
2022-09-28T08:27:27.068Z,81.74
2022-09-28T08:28:27.079Z,82.56
2022-09-28T08:29:27.058Z,82.77
2022-09-28T08:30:27.086Z,82.87
2022-09-28T08:31:27.025Z,82.56
2022-09-28T08:32:27.020Z,82.12
2022-09-28T08:33:27.041Z,82.73
2022-09-28T08:34:26.992Z,83.07
2022-09-28T08:35:26.980Z,82.15
2022-09-28T08:36:26.967Z,82.53
2022-09-28T08:37:26.965Z,81.71
2022-09-28T08:38:26.987Z,82.39
2022-09-28T08:39:26.953Z,81.98
2022-09-28T08:40:27.006Z,81.05
2022-09-28T08:41:26.929Z,81.05
2022-09-28T08:42:26.913Z,81.15
2022-09-28T08:43:27.059Z,80.85
2022-09-28T08:44:26.980Z,80.95
2022-09-28T08:45:26.883Z,82.01
2022-09-28T08:46:27.318Z,82.05
2022-09-28T08:47:26.868Z,81.78
2022-09-28T08:48:26.857Z,83.53
2022-09-28T08:49:26.899Z,83.73
2022-09-28T08:50:26.827Z,83.26
2022-09-28T08:51:26.829Z,81.57
2022-09-28T08:52:26.816Z,81.68
2022-09-28T08:53:26.800Z,83.12
2022-09-28T08:54:26.819Z,83.12
2022-09-28T08:55:26.788Z,84.25
2022-09-28T08:56:26.777Z,83.49
2022-09-28T08:57:26.763Z,83.28
2022-09-28T08:58:26.758Z,82.56
2022-09-28T08:59:26.770Z,81.85
2022-09-28T09:00:26.745Z,82.53
2022-09-28T09:01:26.890Z,82.53
2022-09-28T09:02:26.765Z,82.73
2022-09-28T09:03:26.706Z,81.46
2022-09-28T09:04:26.720Z,80.68
2022-09-28T09:05:26.686Z,81.40
2022-09-28T09:06:26.669Z,80.99
2022-09-28T09:07:26.672Z,78.83
2022-09-28T09:08:26.647Z,79.96
2022-09-28T09:09:26.670Z,78.25
2022-09-28T09:10:26.634Z,78.32
2022-09-28T09:11:26.626Z,77.95
2022-09-28T09:12:26.623Z,78.46
2022-09-28T09:13:26.614Z,79.59
2022-09-28T09:14:26.626Z,79.38
2022-09-28T09:15:26.590Z,78.97
2022-09-28T09:16:26.593Z,80.07
2022-09-28T09:17:26.567Z,79.18
2022-09-28T09:18:26.554Z,78.56
2022-09-28T09:19:26.569Z,78.87
2022-09-28T09:20:26.542Z,79.69
2022-09-28T09:21:26.529Z,79.75
2022-09-28T09:22:26.523Z,79.80
2022-09-28T09:23:26.517Z,79.75
2022-09-28T09:24:26.521Z,79.14
2022-09-28T09:25:26.477Z,79.04
2022-09-28T09:26:26.533Z,78.02
2022-09-28T09:27:26.479Z,78.39
2022-09-28T09:28:26.476Z,79.52
2022-09-28T09:29:26.519Z,80.51
2022-09-28T09:30:29.004Z,80.09
2022-09-28T09:31:27.496Z,78.66
2022-09-28T09:32:26.460Z,78.56
2022-09-28T09:33:26.410Z,77.19
2022-09-28T09:34:26.420Z,76.68
2022-09-28T09:35:30.223Z,78.11
2022-09-28T09:36:27.386Z,79.20
2022-09-28T09:37:26.375Z,76.75
2022-09-28T09:38:26.374Z,77.56
2022-09-28T09:39:26.375Z,75.96
2022-09-28T09:40:26.482Z,74.90
2022-09-28T09:41:26.329Z,75.21
2022-09-28T09:42:26.331Z,74.53
2022-09-28T09:43:29.359Z,73.23
2022-09-28T09:44:27.332Z,72.52
2022-09-28T09:45:26.291Z,74.84
2022-09-28T09:46:26.405Z,75.35
2022-09-28T09:47:26.289Z,76.88
2022-09-28T09:48:26.261Z,78.08
2022-09-28T09:49:26.271Z,76.54
2022-09-28T09:50:26.243Z,74.66
2022-09-28T09:51:26.237Z,73.27
2022-09-28T09:52:26.267Z,75.72
2022-09-28T09:53:26.434Z,75.28
2022-09-28T09:54:26.219Z,74.22
2022-09-28T09:55:30.023Z,74.05
2022-09-28T09:56:27.203Z,73.71
2022-09-28T09:57:26.172Z,74.22
2022-09-28T09:58:26.163Z,75.14
2022-09-28T09:59:26.165Z,75.24
2022-09-28T10:00:26.128Z,76.27
2022-09-28T10:01:26.150Z,75.59
2022-09-28T10:02:26.164Z,76.51
2022-09-28T10:03:27.108Z,77.50
2022-09-28T10:04:26.119Z,75.99
2022-09-28T10:05:26.084Z,76.34
2022-09-28T10:06:26.141Z,74.80
2022-09-28T10:07:26.069Z,76.81
2022-09-28T10:08:26.062Z,75.18
2022-09-28T10:09:26.065Z,75.14
2022-09-28T10:10:26.050Z,76.31
2022-09-28T10:11:26.071Z,76.78
2022-09-28T10:12:26.014Z,76.27
2022-09-28T10:13:26.000Z,76.54
2022-09-28T10:14:26.012Z,77.01
2022-09-28T10:15:25.993Z,75.65
2022-09-28T10:16:26.017Z,75.24
2022-09-28T10:17:25.965Z,74.11
2022-09-28T10:18:25.959Z,74.59
2022-09-28T10:19:25.970Z,73.74
2022-09-28T10:20:25.927Z,73.23
2022-09-28T10:21:25.926Z,72.58
2022-09-28T10:22:25.911Z,72.04
2022-09-28T10:23:25.907Z,72.04
2022-09-28T10:24:25.905Z,71.70
2022-09-28T10:25:25.884Z,72.17
2022-09-28T10:26:25.873Z,71.53
2022-09-28T10:27:25.865Z,70.41
2022-09-28T10:28:25.854Z,68.57
2022-09-28T10:29:25.861Z,68.27
2022-09-28T10:30:25.838Z,67.79
2022-09-28T10:31:25.831Z,68.84
2022-09-28T10:32:25.854Z,70.85
2022-09-28T10:33:25.802Z,73.33
2022-09-28T10:34:25.812Z,73.30
2022-09-28T10:35:25.788Z,73.16
2022-09-28T10:36:25.783Z,70.92
2022-09-28T10:37:25.756Z,68.95
2022-09-28T10:38:25.763Z,67.18
2022-09-28T10:39:25.760Z,69.35
2022-09-28T10:40:25.783Z,70.31
2022-09-28T10:41:25.728Z,71.12
2022-09-28T10:42:25.714Z,71.26
2022-09-28T10:43:25.700Z,69.93
2022-09-28T10:44:25.714Z,71.09
2022-09-28T10:45:25.682Z,71.42
2022-09-28T10:46:25.744Z,73.03
2022-09-28T10:47:25.659Z,71.73
2022-09-28T10:48:25.660Z,72.31
2022-09-28T10:49:25.656Z,73.33
2022-09-28T10:50:25.631Z,72.11
2022-09-28T10:51:25.628Z,72.00
2022-09-28T10:52:25.612Z,72.55
2022-09-28T10:53:25.604Z,71.25
2022-09-28T10:54:25.613Z,72.17
2022-09-28T10:55:25.590Z,72.17
2022-09-28T10:56:25.573Z,71.66
2022-09-28T10:57:25.572Z,70.67
2022-09-28T10:58:25.556Z,70.37
2022-09-28T10:59:25.585Z,70.81
2022-09-28T11:00:25.531Z,73.36
2022-09-28T11:01:25.600Z,73.27
2022-09-28T11:02:25.565Z,73.36
2022-09-28T11:03:25.500Z,73.06
2022-09-28T11:04:25.500Z,72.45
2022-09-28T11:05:25.487Z,73.30
2022-09-28T11:06:25.722Z,74.32
2022-09-28T11:07:25.465Z,75.28
2022-09-28T11:08:25.440Z,75.89
2022-09-28T11:09:29.750Z,75.79
2022-09-28T11:10:27.434Z,78.90
2022-09-28T11:11:25.424Z,80.27
2022-09-28T11:12:25.405Z,80.88
2022-09-28T11:13:25.396Z,81.02
2022-09-28T11:14:25.408Z,81.23
2022-09-28T11:15:25.382Z,82.77
2022-09-28T11:16:25.514Z,83.12
2022-09-28T11:17:25.361Z,82.64
2022-09-28T11:18:25.350Z,82.23
2022-09-28T11:19:25.362Z,82.89
2022-09-28T11:20:27.743Z,82.68
2022-09-28T11:21:25.319Z,83.61
2022-09-28T11:22:25.304Z,85.76
2022-09-28T11:23:25.297Z,85.76
2022-09-28T11:24:25.614Z,86.65
2022-09-28T11:25:25.274Z,86.13
2022-09-28T11:26:25.265Z,86.40
2022-09-28T11:27:25.256Z,85.99
2022-09-28T11:28:25.239Z,84.04
2022-09-28T11:29:25.255Z,84.55
2022-09-28T11:30:25.260Z,85.17
2022-09-28T11:31:25.220Z,85.33
2022-09-28T11:32:25.209Z,85.44
2022-09-28T11:33:25.192Z,85.13
2022-09-28T11:34:41.490Z,83.39
2022-09-28T11:35:27.179Z,82.56
2022-09-28T11:36:25.180Z,82.63
2022-09-28T11:37:25.219Z,81.85
2022-09-28T11:38:25.149Z,82.63
2022-09-28T11:39:25.302Z,81.02
2022-09-28T11:40:25.165Z,82.93
2022-09-28T11:41:25.136Z,81.71
2022-09-28T11:42:25.111Z,81.29
2022-09-28T11:43:25.100Z,83.04
2022-09-28T11:44:28.192Z,81.91
2022-09-28T11:45:25.078Z,82.39
2022-09-28T11:46:25.119Z,82.96
2022-09-28T11:47:25.051Z,81.22
2022-09-28T11:48:25.027Z,82.65
2022-09-28T11:49:25.054Z,82.51
2022-09-28T11:50:25.121Z,80.05
2022-09-28T11:51:25.015Z,80.77
2022-09-28T11:52:25.035Z,80.63
2022-09-28T11:53:24.997Z,79.57
2022-09-28T11:54:25.011Z,79.16
2022-09-28T11:55:25.003Z,78.55
2022-09-28T11:56:24.978Z,78.92
2022-09-28T11:57:25.010Z,78.38
2022-09-28T11:58:24.943Z,77.76
2022-09-28T11:59:24.978Z,78.48
2022-09-28T12:00:24.913Z,78.54
2022-09-28T12:01:24.924Z,78.44
2022-09-28T12:02:24.981Z,75.62
2022-09-28T12:03:24.981Z,75.34
2022-09-28T12:04:25.913Z,75.17
2022-09-28T12:05:24.865Z,75.14
2022-09-28T12:06:24.867Z,76.03
2022-09-28T12:07:24.880Z,72.55
2022-09-28T12:08:24.841Z,72.75
2022-09-28T12:09:24.857Z,73.20
2022-09-28T12:10:24.820Z,72.38
2022-09-28T12:11:24.833Z,73.61
2022-09-28T12:12:24.798Z,73.81
2022-09-28T12:13:24.798Z,73.61
2022-09-28T12:14:24.810Z,75.24
2022-09-28T12:15:24.774Z,75.41
2022-09-28T12:17:00.515Z,74.18
2022-09-28T12:17:26.842Z,74.69
2022-09-28T12:18:24.738Z,72.82
2022-09-28T12:19:24.760Z,72.62
2022-09-28T12:20:24.714Z,73.13
2022-09-28T12:21:24.709Z,71.91
2022-09-28T12:22:24.694Z,72.41
2022-09-28T12:23:24.688Z,72.00
2022-09-28T12:24:24.699Z,71.05
2022-09-28T12:25:24.692Z,70.06
2022-09-28T12:26:24.654Z,71.15
2022-09-28T12:27:24.660Z,72.24
2022-09-28T12:28:24.633Z,72.00
2022-09-28T12:29:24.649Z,72.11
2022-09-28T12:30:24.649Z,71.56
2022-09-28T12:31:24.629Z,72.92
2022-09-28T12:32:24.595Z,72.31
2022-09-28T12:33:24.588Z,72.52
2022-09-28T12:34:24.594Z,72.99
2022-09-28T12:35:24.562Z,73.60
2022-09-28T12:36:24.584Z,73.67
2022-09-28T12:37:24.549Z,73.43
2022-09-28T12:38:24.542Z,73.03
2022-09-28T12:39:40.797Z,72.92
2022-09-28T12:40:25.569Z,73.33
2022-09-28T12:41:24.510Z,71.60
2022-09-28T12:42:24.501Z,73.16
2022-09-28T12:43:24.494Z,75.24
2022-09-28T12:44:24.499Z,75.07
2022-09-28T12:45:24.491Z,75.41
2022-09-28T12:46:24.584Z,76.43
2022-09-28T12:47:24.457Z,75.48
2022-09-28T12:48:24.449Z,72.99
2022-09-28T12:50:13.795Z,76.92
2022-09-28T12:50:48.654Z,77.50
2022-09-28T12:51:26.426Z,79.35
2022-09-28T12:52:24.409Z,78.94